« ◆ユニークアクセス1万突破(感謝) | トップページ | ◆Wind Calm(番外2) »

2004.02.21

◆Wind Calm(番外1)

 飛びに行こうと思っています。昨日までの好天続きが一転曇り? 前線も近づきつつある、が、・・・

 RJOY 202300Z 00000KT 8000 FEW005 SCT040 08/05 Q1027
 八尾空港 20日朝8時 風速0ノット 視程8km・・・ Wind Calm !

 珍しいことです。風が出ないうちに(といってもすぐ出るんだけど)、早めに出よう!
 

|

« ◆ユニークアクセス1万突破(感謝) | トップページ | ◆Wind Calm(番外2) »

趣味」カテゴリの記事

飛行機」カテゴリの記事

コメント

無風状態が続くといいですね。気をつけていってらっしゃいませ。

投稿: iyota | 2004.02.21 11:25

いつもありがとうございます。お蔭様で無事かつ快適でした。

投稿: Wind Calm | 2004.02.21 13:44

コメントを書く



(ウェブ上には掲載しません)


コメントは記事投稿者が公開するまで表示されません。



トラックバック


この記事へのトラックバック一覧です: ◆Wind Calm(番外1):

« ◆ユニークアクセス1万突破(感謝) | トップページ | ◆Wind Calm(番外2) »